Time;durP1;ratioP1;P1;durP2;ratioP2;P2;SDS_P1;SDS_P2;PMS_P1;PMS_P2;Temp;Humidity;BMP_temperature;BMP_pressure;BME280_temperature;BME280_humidity;BME280_pressure;Samples;Min_cycle;Max_cycle;Signal;HPM_P1;HPM_P2
2022/01/01 16:35:08;;;;;;;;;12.25;9.00;;;;;15.88;65.00;102503.06;5098936;27;45915;-89
2022/01/01 16:37:34;;;;;;;;;13.00;10.25;;;;;16.00;64.32;102497.91;5070600;27;45591;-93
2022/01/01 16:40:01;;;;;;;;;12.75;12.25;;;;;16.11;64.41;102483.88;5076021;27;45396;-95
2022/01/01 16:42:28;;;;;;;;;12.25;12.25;;;;;16.32;63.78;102486.97;5110110;27;45318;-92
2022/01/01 16:45:05;;;;;;;;;14.25;10.25;;;;;16.52;63.07;102489.34;5089749;27;46439;-94
2022/01/01 16:47:30;;;;;;;;;11.80;11.80;;;;;16.73;63.24;102502.28;5070635;27;45486;-88
2022/01/01 16:50:09;;;;;;;;;11.00;11.00;;;;;16.86;62.77;102492.50;5079706;27;45472;-88
2022/01/01 16:52:59;;;;;;;;;11.75;10.25;;;;;16.88;62.45;102477.16;5088638;27;45772;-89
2022/01/01 16:55:32;;;;;;;;;15.25;13.25;;;;;17.01;62.06;102481.72;5053738;27;47353;-89
2022/01/01 16:58:05;;;;;;;;;15.00;14.60;;;;;17.22;61.78;102500.00;5069800;27;45517;-88
2022/01/01 17:00:32;;;;;;;;;12.40;12.20;;;;;17.08;61.39;102474.94;5107299;27;45399;-87
2022/01/01 17:02:59;;;;;;;;;13.25;11.75;;;;;17.33;61.01;102502.81;5099004;27;45335;-89
2022/01/01 17:05:25;;;;;;;;;15.75;14.25;;;;;17.25;60.88;102481.03;5073477;27;47424;-90
2022/01/01 17:07:50;;;;;;;;;15.50;12.50;;;;;17.35;60.77;102490.16;5093665;27;45471;-89
2022/01/01 17:10:17;;;;;;;;;13.00;13.00;;;;;17.60;60.63;102517.13;5067826;27;45721;-93
2022/01/01 17:12:42;;;;;;;;;20.00;15.50;;;;;17.57;60.49;102491.38;5095211;27;46132;-90
2022/01/01 17:15:08;;;;;;;;;16.25;14.00;;;;;17.79;59.99;102518.50;5104755;27;47619;-88
2022/01/01 17:17:58;;;;;;;;;18.75;17.25;;;;;17.92;59.90;102529.28;5096411;27;45983;-87
2022/01/01 17:20:40;;;;;;;;;17.80;14.20;;;;;17.94;59.82;102508.53;5081404;27;45380;-88
2022/01/01 17:23:12;;;;;;;;;18.00;16.00;;;;;17.97;59.45;102510.13;5068740;27;45426;-88
2022/01/01 17:25:38;;;;;;;;;15.00;12.75;;;;;18.04;58.92;102502.50;5058271;27;46486;-89
2022/01/01 17:28:24;;;;;;;;;15.50;12.75;;;;;18.15;59.50;102513.34;5090007;27;45634;-90
2022/01/01 17:30:50;;;;;;;;;14.60;14.40;;;;;18.03;58.84;102493.59;5108601;27;45520;-89
2022/01/01 17:33:39;;;;;;;;;11.75;11.75;;;;;17.95;58.90;102469.13;5090983;27;45551;-89
2022/01/01 17:36:19;;;;;;;;;19.20;14.20;;;;;18.01;58.65;102464.16;5071412;27;47251;-88
2022/01/01 17:42:04;;;;;;;;;13.80;13.80;;;;;18.16;58.44;102447.88;5078336;27;45876;-88
2022/01/01 17:44:31;;;;;;;;;16.00;14.50;;;;;18.20;58.30;102437.78;5061340;27;45888;-87
2022/01/01 17:46:56;;;;;;;;;20.00;17.25;;;;;18.24;58.03;102440.16;5070610;27;45631;-89
2022/01/01 17:49:28;;;;;;;;;23.50;20.00;;;;;18.25;57.85;102441.03;5052692;28;45548;-89
2022/01/01 17:51:59;;;;;;;;;20.80;20.60;;;;;18.21;57.91;102448.47;5062267;28;45957;-87
2022/01/01 17:54:25;;;;;;;;;21.75;19.25;;;;;18.29;58.04;102465.84;5074375;27;45603;-87
2022/01/01 17:56:50;;;;;;;;;17.50;17.25;;;;;18.30;57.54;102470.25;5068045;27;45762;-87
2022/01/01 17:59:16;;;;;;;;;22.25;18.75;;;;;18.27;57.70;102457.91;5064741;28;45535;-88
2022/01/01 18:01:42;;;;;;;;;18.75;18.75;;;;;18.32;57.37;102465.63;5064578;28;45643;-86
2022/01/01 18:04:11;;;;;;;;;20.50;20.50;;;;;18.30;57.54;102472.94;5058149;28;45781;-87
2022/01/01 18:06:37;;;;;;;;;26.00;20.25;;;;;18.51;57.47;102504.56;5069340;27;45540;-88
2022/01/01 18:09:02;;;;;;;;;20.50;17.50;;;;;18.34;57.33;102469.03;5056932;27;45950;-90
2022/01/01 18:11:31;;;;;;;;;22.50;17.50;;;;;18.32;57.36;102469.16;5072762;27;45957;-90
2022/01/01 18:14:06;;;;;;;;;20.50;18.00;;;;;18.40;57.21;102475.81;5061122;28;45519;-89
2022/01/01 18:16:31;;;;;;;;;20.00;18.60;;;;;18.33;57.10;102472.72;5077716;27;46185;-89
2022/01/01 18:18:58;;;;;;;;;21.25;19.75;;;;;18.22;57.30;102455.53;5071061;27;45802;-90
2022/01/01 18:21:24;;;;;;;;;19.20;17.80;;;;;18.29;57.04;102457.78;5040540;28;45883;-88
2022/01/01 18:24:09;;;;;;;;;20.25;18.00;;;;;18.46;57.26;102478.91;5084950;27;45573;-89
2022/01/01 18:26:41;;;;;;;;;16.75;16.50;;;;;18.36;56.89;102461.72;5055201;28;46525;-90
2022/01/01 18:29:06;;;;;;;;;17.60;15.80;;;;;18.27;57.08;102451.69;5094116;27;45511;-89
2022/01/01 18:31:36;;;;;;;;;22.25;19.00;;;;;18.30;56.97;102451.44;5058802;28;45553;-89
2022/01/01 18:34:02;;;;;;;;;21.50;17.75;;;;;18.54;56.85;102494.47;5066413;27;45854;-90
2022/01/01 18:36:28;;;;;;;;;17.25;15.25;;;;;18.34;56.99;102466.34;5039757;28;46423;-91
2022/01/01 18:38:55;;;;;;;;;19.25;19.00;;;;;18.24;57.08;102448.22;5052253;27;45567;-89
2022/01/01 18:41:21;;;;;;;;;16.60;16.20;;;;;18.16;57.01;102434.47;5057545;28;45918;-89
2022/01/01 18:43:46;;;;;;;;;17.25;16.25;;;;;18.39;56.73;102479.47;5054984;28;45936;-89
2022/01/01 18:46:12;;;;;;;;;18.00;16.50;;;;;18.22;56.70;102444.78;5031842;28;48046;-91
2022/01/01 18:48:38;;;;;;;;;17.00;15.00;;;;;18.23;56.96;102451.91;5049084;28;45759;-91
2022/01/01 18:51:24;;;;;;;;;17.75;16.75;;;;;18.35;56.63;102468.09;5076472;27;45558;-90
2022/01/01 18:53:55;;;;;;;;;11.20;11.20;;;;;18.49;57.06;102490.38;5076952;27;45507;-90
